Millerovo, Russia
Current Conditions -  °F | °C
As of 8:00 PM on Sunday 23 Nov 2014 (Local Time) from URRR Reporting Station
Clear Clear  
Wind Chill: 19°   Ceiling: Unl
Heat Index: 25°   Visibility: 5mi
Dew Point: 18°   Wind: 4mph
Humidity: 74%   Direction: 10°N
Pressure: 30.36"   Gusts: NA
Location:  48.93°N, 40.39°E
Report Text: URRR 231700Z 01002MPS 310V050 P8000 NSC M04/M08 Q1028 04CLRD70NOSIG
Loading
Personal Weather Stations






























Interactive Weather Map New forecast layout! Learn more

10-Day Weather Forecast

Advertisements
Track Severe Weather on mobile